TAP1923 LPPR-LPPT
Flight info
| Callsign | TAP1923 |
|---|---|
| Flight time | 0h 46m |
| Altitude | 35000 |
| Route | MANIK DCT ABRIL DCT XAMAX |
| Aircraft | A20N/M-SDE2E3FGHIRWXY/LB1 |
Departure
| Time | 2026-05-01 10:11 |
|---|---|
| Airport | Francisco de Sá Carneiro Airport (LPPR) |
Arrival
| Time | 2026-05-01 10:57 |
|---|---|
| Airport | Lisbon Humberto Delgado Airport (LPPT) |
| Time | Latitude | Longitude | Altitude | Speed | Heading |
|---|---|---|---|---|---|
| 2026-05-01 09:43 | 41.23590 | -8.67228 | 245 ft | 0 kts | 90° |
| 2026-05-01 10:02 | 41.23590 | -8.67238 | 245 ft | 4 kts | 90° |
| 2026-05-01 10:02 | 41.23590 | -8.67274 | 245 ft | 4 kts | 91° |
| 2026-05-01 10:02 | 41.23592 | -8.67310 | 245 ft | 4 kts | 103° |
| 2026-05-01 10:02 | 41.23601 | -8.67336 | 245 ft | 4 kts | 164° |
| 2026-05-01 10:03 | 41.23606 | -8.67338 | 245 ft | 1 kts | 184° |
| 2026-05-01 10:06 | 41.23597 | -8.67340 | 245 ft | 2 kts | 188° |
| 2026-05-01 10:06 | 41.23575 | -8.67352 | 244 ft | 7 kts | 206° |
| 2026-05-01 10:07 | 41.23515 | -8.67386 | 241 ft | 12 kts | 189° |
| 2026-05-01 10:07 | 41.23430 | -8.67373 | 240 ft | 12 kts | 167° |
| 2026-05-01 10:07 | 41.23357 | -8.67377 | 239 ft | 11 kts | 211° |
| 2026-05-01 10:07 | 41.23328 | -8.67462 | 238 ft | 10 kts | 259° |
| 2026-05-01 10:08 | 41.23300 | -8.67642 | 240 ft | 11 kts | 258° |
| 2026-05-01 10:08 | 41.23312 | -8.67724 | 243 ft | 10 kts | 314° |
| 2026-05-01 10:08 | 41.23356 | -8.67746 | 242 ft | 0 kts | 349° |
| 2026-05-01 10:09 | 41.23357 | -8.67746 | 242 ft | 1 kts | 349° |
| 2026-05-01 10:09 | 41.23358 | -8.67746 | 242 ft | 0 kts | 349° |
| 2026-05-01 10:10 | 41.23362 | -8.67747 | 242 ft | 7 kts | 349° |
| 2026-05-01 10:10 | 41.23644 | -8.67822 | 232 ft | 79 kts | 348° |
| 2026-05-01 10:10 | 41.25497 | -8.68310 | 475 ft | 169 kts | 347° |
| 2026-05-01 10:11 | 41.26690 | -8.68631 | 1053 ft | 177 kts | 348° |
| 2026-05-01 10:11 | 41.27912 | -8.68972 | 1736 ft | 189 kts | 347° |
| 2026-05-01 10:11 | 41.29262 | -8.69372 | 2395 ft | 205 kts | 347° |
| 2026-05-01 10:11 | 41.30705 | -8.69737 | 3146 ft | 222 kts | 349° |
| 2026-05-01 10:12 | 41.32329 | -8.70118 | 3750 ft | 251 kts | 350° |
| 2026-05-01 10:12 | 41.33496 | -8.70385 | 4212 ft | 262 kts | 350° |
| 2026-05-01 10:12 | 41.35370 | -8.70854 | 4801 ft | 272 kts | 349° |
| 2026-05-01 10:13 | 41.36404 | -8.71117 | 5194 ft | 274 kts | 349° |
| 2026-05-01 10:13 | 41.38312 | -8.71677 | 5966 ft | 285 kts | 343° |
| 2026-05-01 10:13 | 41.40069 | -8.72856 | 7116 ft | 285 kts | 320° |
| 2026-05-01 10:14 | 41.42378 | -8.77056 | 9359 ft | 282 kts | 288° |
| 2026-05-01 10:14 | 41.42700 | -8.79604 | 10396 ft | 280 kts | 264° |
| 2026-05-01 10:14 | 41.42147 | -8.82129 | 10967 ft | 295 kts | 237° |
| 2026-05-01 10:14 | 41.40636 | -8.84082 | 11340 ft | 318 kts | 209° |
| 2026-05-01 10:15 | 41.38451 | -8.84876 | 11905 ft | 335 kts | 182° |
| 2026-05-01 10:15 | 41.36112 | -8.84467 | 12770 ft | 343 kts | 169° |
| 2026-05-01 10:15 | 41.33762 | -8.83763 | 13732 ft | 347 kts | 169° |
| 2026-05-01 10:15 | 41.31390 | -8.83075 | 14616 ft | 351 kts | 170° |
| 2026-05-01 10:16 | 41.28978 | -8.82429 | 15469 ft | 355 kts | 171° |
| 2026-05-01 10:16 | 41.26570 | -8.81822 | 16322 ft | 358 kts | 171° |
| 2026-05-01 10:16 | 41.21616 | -8.80632 | 18020 ft | 366 kts | 172° |
| 2026-05-01 10:17 | 41.19097 | -8.80040 | 18786 ft | 370 kts | 172° |
| 2026-05-01 10:17 | 41.13947 | -8.78843 | 20132 ft | 380 kts | 173° |
| 2026-05-01 10:17 | 41.11324 | -8.78235 | 20792 ft | 384 kts | 173° |
| 2026-05-01 10:18 | 41.06017 | -8.77009 | 22091 ft | 394 kts | 173° |
| 2026-05-01 10:18 | 41.03274 | -8.76376 | 22734 ft | 398 kts | 174° |
| 2026-05-01 10:18 | 41.00559 | -8.75750 | 23106 ft | 401 kts | 174° |
| 2026-05-01 10:19 | 40.97803 | -8.75115 | 23189 ft | 402 kts | 174° |
| 2026-05-01 10:19 | 40.95042 | -8.74479 | 23183 ft | 404 kts | 174° |
| 2026-05-01 10:19 | 40.92276 | -8.73842 | 23184 ft | 404 kts | 174° |
| 2026-05-01 10:20 | 40.86722 | -8.72566 | 23187 ft | 405 kts | 174° |
| 2026-05-01 10:20 | 40.83943 | -8.71928 | 23182 ft | 405 kts | 174° |
| 2026-05-01 10:20 | 40.81169 | -8.71293 | 23177 ft | 405 kts | 174° |
| 2026-05-01 10:20 | 40.78388 | -8.70656 | 23180 ft | 406 kts | 174° |
| 2026-05-01 10:21 | 40.75592 | -8.70017 | 23184 ft | 407 kts | 174° |
| 2026-05-01 10:21 | 40.70954 | -8.68957 | 23183 ft | 407 kts | 174° |
| 2026-05-01 10:21 | 40.68154 | -8.68317 | 23185 ft | 407 kts | 174° |
| 2026-05-01 10:22 | 40.61652 | -8.66836 | 23184 ft | 407 kts | 174° |
| 2026-05-01 10:22 | 40.56962 | -8.65768 | 23179 ft | 408 kts | 174° |
| 2026-05-01 10:23 | 40.54168 | -8.65133 | 23184 ft | 408 kts | 174° |
| 2026-05-01 10:23 | 40.48601 | -8.63870 | 23181 ft | 408 kts | 174° |
| 2026-05-01 10:23 | 40.45803 | -8.63235 | 23180 ft | 408 kts | 174° |
| 2026-05-01 10:24 | 40.40204 | -8.61968 | 23181 ft | 408 kts | 174° |
| 2026-05-01 10:24 | 40.37461 | -8.61348 | 23181 ft | 408 kts | 174° |
| 2026-05-01 10:25 | 40.32976 | -8.60335 | 23181 ft | 408 kts | 174° |
| 2026-05-01 10:26 | 40.30186 | -8.59705 | 23181 ft | 408 kts | 174° |
| 2026-05-01 10:26 | 40.27387 | -8.59074 | 23181 ft | 408 kts | 174° |
| 2026-05-01 10:26 | 40.21781 | -8.57811 | 23181 ft | 408 kts | 174° |
| 2026-05-01 10:27 | 40.16189 | -8.56555 | 23181 ft | 408 kts | 174° |
| 2026-05-01 10:27 | 40.10631 | -8.55308 | 23181 ft | 408 kts | 174° |
| 2026-05-01 10:28 | 40.07824 | -8.54678 | 23181 ft | 408 kts | 174° |
| 2026-05-01 10:28 | 40.02218 | -8.53574 | 23178 ft | 406 kts | 179° |
| 2026-05-01 10:28 | 39.99409 | -8.53298 | 23176 ft | 405 kts | 180° |
| 2026-05-01 10:29 | 39.93770 | -8.52832 | 23161 ft | 405 kts | 180° |
| 2026-05-01 10:29 | 39.90963 | -8.52602 | 23174 ft | 405 kts | 180° |
| 2026-05-01 10:30 | 39.85333 | -8.52138 | 23173 ft | 405 kts | 180° |
| 2026-05-01 10:30 | 39.79703 | -8.51696 | 23174 ft | 404 kts | 182° |
| 2026-05-01 10:31 | 39.74285 | -8.52835 | 23173 ft | 394 kts | 205° |
| 2026-05-01 10:31 | 39.69542 | -8.56231 | 23167 ft | 380 kts | 213° |
| 2026-05-01 10:32 | 39.65249 | -8.59648 | 23165 ft | 344 kts | 214° |
| 2026-05-01 10:32 | 39.63258 | -8.61225 | 23165 ft | 329 kts | 214° |
| 2026-05-01 10:32 | 39.59397 | -8.64275 | 23176 ft | 323 kts | 214° |
| 2026-05-01 10:33 | 39.55572 | -8.67285 | 23180 ft | 324 kts | 214° |
| 2026-05-01 10:33 | 39.51719 | -8.70307 | 23181 ft | 324 kts | 214° |
| 2026-05-01 10:34 | 39.49787 | -8.71820 | 23198 ft | 324 kts | 214° |
| 2026-05-01 10:34 | 39.47863 | -8.73326 | 23185 ft | 323 kts | 213° |
| 2026-05-01 10:34 | 39.45935 | -8.74833 | 23181 ft | 323 kts | 213° |
| 2026-05-01 10:35 | 39.42081 | -8.77845 | 23185 ft | 323 kts | 214° |
| 2026-05-01 10:35 | 39.40223 | -8.79479 | 23183 ft | 322 kts | 220° |
| 2026-05-01 10:35 | 39.38608 | -8.81408 | 23184 ft | 321 kts | 227° |
| 2026-05-01 10:35 | 39.37106 | -8.83547 | 23184 ft | 321 kts | 229° |
| 2026-05-01 10:36 | 39.34178 | -8.87875 | 22540 ft | 317 kts | 229° |
| 2026-05-01 10:36 | 39.32728 | -8.90014 | 22086 ft | 315 kts | 229° |
| 2026-05-01 10:36 | 39.31282 | -8.92143 | 21651 ft | 313 kts | 229° |
| 2026-05-01 10:37 | 39.29851 | -8.94245 | 21224 ft | 311 kts | 229° |
| 2026-05-01 10:37 | 39.27028 | -8.98385 | 20387 ft | 307 kts | 229° |
| 2026-05-01 10:37 | 39.25604 | -9.00469 | 19967 ft | 305 kts | 229° |
| 2026-05-01 10:38 | 39.24225 | -9.02486 | 19562 ft | 303 kts | 229° |
| 2026-05-01 10:38 | 39.22836 | -9.04517 | 19156 ft | 301 kts | 229° |
| 2026-05-01 10:38 | 39.21450 | -9.06542 | 18727 ft | 299 kts | 229° |
| 2026-05-01 10:38 | 39.20077 | -9.08547 | 18295 ft | 298 kts | 229° |
| 2026-05-01 10:39 | 39.18705 | -9.10548 | 17856 ft | 296 kts | 228° |
| 2026-05-01 10:39 | 39.17344 | -9.12532 | 17395 ft | 295 kts | 228° |
| 2026-05-01 10:39 | 39.15987 | -9.14510 | 16913 ft | 295 kts | 228° |
| 2026-05-01 10:39 | 39.14629 | -9.16487 | 16436 ft | 294 kts | 228° |
| 2026-05-01 10:40 | 39.13269 | -9.18466 | 15978 ft | 293 kts | 227° |
| 2026-05-01 10:40 | 39.11916 | -9.20433 | 15518 ft | 293 kts | 227° |
| 2026-05-01 10:40 | 39.10585 | -9.22368 | 15083 ft | 292 kts | 227° |
| 2026-05-01 10:40 | 39.09234 | -9.24331 | 14642 ft | 292 kts | 227° |
| 2026-05-01 10:41 | 39.07889 | -9.26283 | 14199 ft | 291 kts | 227° |
| 2026-05-01 10:41 | 39.06544 | -9.28233 | 13749 ft | 291 kts | 227° |
| 2026-05-01 10:41 | 39.03867 | -9.32113 | 12851 ft | 288 kts | 227° |
| 2026-05-01 10:42 | 39.02550 | -9.34021 | 12595 ft | 280 kts | 227° |
| 2026-05-01 10:42 | 39.01280 | -9.35859 | 12431 ft | 270 kts | 227° |
| 2026-05-01 10:42 | 39.00050 | -9.37639 | 12179 ft | 264 kts | 226° |
| 2026-05-01 10:42 | 38.98832 | -9.39399 | 11872 ft | 261 kts | 226° |
| 2026-05-01 10:43 | 38.97628 | -9.41137 | 11524 ft | 259 kts | 226° |
| 2026-05-01 10:43 | 38.96431 | -9.42865 | 11178 ft | 258 kts | 226° |
| 2026-05-01 10:43 | 38.95241 | -9.44582 | 10833 ft | 257 kts | 226° |
| 2026-05-01 10:43 | 38.94063 | -9.46281 | 10507 ft | 256 kts | 226° |
| 2026-05-01 10:44 | 38.92881 | -9.47983 | 10174 ft | 255 kts | 226° |
| 2026-05-01 10:44 | 38.91703 | -9.49681 | 9795 ft | 254 kts | 227° |
| 2026-05-01 10:44 | 38.90529 | -9.51371 | 9403 ft | 253 kts | 227° |
| 2026-05-01 10:44 | 38.89338 | -9.53028 | 9022 ft | 252 kts | 222° |
| 2026-05-01 10:45 | 38.87908 | -9.54301 | 8606 ft | 250 kts | 203° |
| 2026-05-01 10:45 | 38.86225 | -9.54821 | 8235 ft | 250 kts | 186° |
| 2026-05-01 10:45 | 38.84513 | -9.54917 | 8034 ft | 248 kts | 181° |
| 2026-05-01 10:45 | 38.82786 | -9.54939 | 8002 ft | 249 kts | 181° |
| 2026-05-01 10:46 | 38.81046 | -9.54959 | 8004 ft | 250 kts | 181° |
| 2026-05-01 10:46 | 38.79309 | -9.54985 | 8004 ft | 250 kts | 181° |
| 2026-05-01 10:46 | 38.77564 | -9.55016 | 8004 ft | 250 kts | 181° |
| 2026-05-01 10:46 | 38.75828 | -9.55050 | 8004 ft | 250 kts | 182° |
| 2026-05-01 10:47 | 38.74090 | -9.55085 | 8004 ft | 250 kts | 182° |
| 2026-05-01 10:47 | 38.72353 | -9.55122 | 8001 ft | 250 kts | 182° |
| 2026-05-01 10:47 | 38.70617 | -9.55159 | 8008 ft | 250 kts | 182° |
| 2026-05-01 10:47 | 38.68879 | -9.55197 | 8002 ft | 250 kts | 182° |
| 2026-05-01 10:48 | 38.67144 | -9.55234 | 7770 ft | 249 kts | 182° |
| 2026-05-01 10:48 | 38.65413 | -9.55196 | 7407 ft | 249 kts | 174° |
| 2026-05-01 10:48 | 38.63741 | -9.54619 | 7035 ft | 250 kts | 156° |
| 2026-05-01 10:48 | 38.62357 | -9.53282 | 6660 ft | 253 kts | 130° |
| 2026-05-01 10:49 | 38.61517 | -9.51302 | 6286 ft | 254 kts | 112° |
| 2026-05-01 10:49 | 38.60962 | -9.49170 | 5983 ft | 265 kts | 108° |
| 2026-05-01 10:49 | 38.60409 | -9.46820 | 5557 ft | 285 kts | 108° |
| 2026-05-01 10:49 | 38.59834 | -9.44358 | 5003 ft | 288 kts | 107° |
| 2026-05-01 10:50 | 38.59270 | -9.41948 | 4795 ft | 276 kts | 107° |
| 2026-05-01 10:50 | 38.58731 | -9.39650 | 4636 ft | 264 kts | 107° |
| 2026-05-01 10:50 | 38.58211 | -9.37446 | 4471 ft | 253 kts | 107° |
| 2026-05-01 10:50 | 38.57712 | -9.35336 | 4331 ft | 242 kts | 107° |
| 2026-05-01 10:51 | 38.57237 | -9.33317 | 4202 ft | 233 kts | 106° |
| 2026-05-01 10:51 | 38.57016 | -9.31322 | 4087 ft | 221 kts | 85° |
| 2026-05-01 10:51 | 38.57366 | -9.29485 | 4012 ft | 204 kts | 70° |
| 2026-05-01 10:51 | 38.57863 | -9.27867 | 3995 ft | 196 kts | 67° |
| 2026-05-01 10:52 | 38.58386 | -9.26264 | 4001 ft | 195 kts | 67° |
| 2026-05-01 10:52 | 38.58935 | -9.24684 | 3997 ft | 195 kts | 59° |
| 2026-05-01 10:52 | 38.59854 | -9.23436 | 3947 ft | 193 kts | 33° |
| 2026-05-01 10:52 | 38.61048 | -9.22668 | 3735 ft | 192 kts | 21° |
| 2026-05-01 10:53 | 38.62293 | -9.22054 | 3459 ft | 191 kts | 21° |
| 2026-05-01 10:53 | 38.63518 | -9.21400 | 3176 ft | 189 kts | 22° |
| 2026-05-01 10:53 | 38.64731 | -9.20748 | 2911 ft | 189 kts | 21° |
| 2026-05-01 10:53 | 38.65939 | -9.20106 | 2656 ft | 188 kts | 21° |
| 2026-05-01 10:54 | 38.67149 | -9.19461 | 2397 ft | 188 kts | 22° |
| 2026-05-01 10:54 | 38.68329 | -9.18831 | 2142 ft | 184 kts | 22° |
| 2026-05-01 10:54 | 38.69453 | -9.18232 | 1907 ft | 167 kts | 22° |
| 2026-05-01 10:54 | 38.70514 | -9.17665 | 1684 ft | 165 kts | 22° |
| 2026-05-01 10:55 | 38.71543 | -9.17116 | 1450 ft | 154 kts | 22° |
| 2026-05-01 10:55 | 38.72491 | -9.16610 | 1250 ft | 143 kts | 22° |
| 2026-05-01 10:55 | 38.73410 | -9.16129 | 1077 ft | 142 kts | 21° |
| 2026-05-01 10:55 | 38.74329 | -9.15642 | 919 ft | 144 kts | 22° |
| 2026-05-01 10:56 | 38.75250 | -9.15146 | 681 ft | 143 kts | 22° |
| 2026-05-01 10:56 | 38.76158 | -9.14650 | 478 ft | 142 kts | 22° |
| 2026-05-01 10:56 | 38.77049 | -9.14172 | 358 ft | 134 kts | 22° |
| 2026-05-01 10:56 | 38.77726 | -9.13810 | 366 ft | 79 kts | 23° |
| 2026-05-01 10:57 | 38.78138 | -9.13588 | 371 ft | 55 kts | 25° |
| 2026-05-01 10:57 | 38.78362 | -9.13360 | 366 ft | 30 kts | 60° |
| 2026-05-01 10:57 | 38.78274 | -9.13286 | 363 ft | 18 kts | 204° |
| 2026-05-01 10:57 | 38.78155 | -9.13351 | 365 ft | 19 kts | 202° |
| 2026-05-01 10:58 | 38.78028 | -9.13409 | 362 ft | 20 kts | 182° |
| 2026-05-01 10:58 | 38.77874 | -9.13376 | 352 ft | 25 kts | 168° |
| 2026-05-01 10:58 | 38.77675 | -9.13325 | 346 ft | 32 kts | 173° |
| 2026-05-01 10:58 | 38.77456 | -9.13285 | 340 ft | 33 kts | 167° |
| 2026-05-01 10:59 | 38.77248 | -9.13237 | 339 ft | 26 kts | 168° |
| 2026-05-01 10:59 | 38.77111 | -9.13198 | 341 ft | 10 kts | 149° |
| 2026-05-01 10:59 | 38.77109 | -9.13151 | 339 ft | 6 kts | 78° |
| 2026-05-01 10:59 | 38.77115 | -9.13116 | 339 ft | 1 kts | 78° |
| 2026-05-01 11:00 | 38.77115 | -9.13114 | 340 ft | 0 kts | 78° |